sensor_id;sensor_type;location;lat;lon;timestamp;pressure;altitude;pressure_sealevel;temperature;humidity
25430;BME280;13360;48.152;-1.788;2023-02-02T00:01:54;103265.75;;;11.40;100.00
25430;BME280;13360;48.152;-1.788;2023-02-02T00:04:25;103258.78;;;11.37;100.00
25430;BME280;13360;48.152;-1.788;2023-02-02T00:06:51;103256.75;;;11.33;100.00
25430;BME280;13360;48.152;-1.788;2023-02-02T00:09:18;103265.66;;;11.35;100.00
25430;BME280;13360;48.152;-1.788;2023-02-02T00:11:45;103263.72;;;11.35;100.00
25430;BME280;13360;48.152;-1.788;2023-02-02T00:14:11;103248.19;;;11.34;100.00
25430;BME280;13360;48.152;-1.788;2023-02-02T00:16:39;103260.13;;;11.35;100.00
25430;BME280;13360;48.152;-1.788;2023-02-02T00:21:37;103267.34;;;11.36;100.00
25430;BME280;13360;48.152;-1.788;2023-02-02T00:24:04;103267.69;;;11.39;100.00
25430;BME280;13360;48.152;-1.788;2023-02-02T00:26:29;103251.44;;;11.43;100.00
25430;BME280;13360;48.152;-1.788;2023-02-02T00:28:55;103246.28;;;11.46;100.00
25430;BME280;13360;48.152;-1.788;2023-02-02T00:31:21;103233.03;;;11.37;100.00
25430;BME280;13360;48.152;-1.788;2023-02-02T00:33:48;103246.88;;;11.37;100.00
25430;BME280;13360;48.152;-1.788;2023-02-02T00:36:15;103242.19;;;11.37;100.00
25430;BME280;13360;48.152;-1.788;2023-02-02T00:38:40;103229.78;;;11.40;100.00
25430;BME280;13360;48.152;-1.788;2023-02-02T00:41:06;103212.59;;;11.26;100.00
25430;BME280;13360;48.152;-1.788;2023-02-02T00:43:31;103216.81;;;11.28;100.00
25430;BME280;13360;48.152;-1.788;2023-02-02T00:45:57;103215.97;;;11.28;100.00
25430;BME280;13360;48.152;-1.788;2023-02-02T00:48:23;103229.91;;;11.33;100.00
25430;BME280;13360;48.152;-1.788;2023-02-02T00:50:50;103234.38;;;11.34;100.00
25430;BME280;13360;48.152;-1.788;2023-02-02T00:53:15;103224.50;;;11.38;100.00
25430;BME280;13360;48.152;-1.788;2023-02-02T00:55:41;103219.78;;;11.39;100.00
25430;BME280;13360;48.152;-1.788;2023-02-02T00:58:06;103219.56;;;11.40;100.00
25430;BME280;13360;48.152;-1.788;2023-02-02T01:00:31;103210.06;;;11.36;100.00
25430;BME280;13360;48.152;-1.788;2023-02-02T01:02:57;103206.00;;;11.27;100.00
25430;BME280;13360;48.152;-1.788;2023-02-02T01:05:31;103202.50;;;11.20;100.00
25430;BME280;13360;48.152;-1.788;2023-02-02T01:07:57;103209.22;;;11.24;100.00
25430;BME280;13360;48.152;-1.788;2023-02-02T01:10:22;103213.22;;;11.28;100.00
25430;BME280;13360;48.152;-1.788;2023-02-02T01:12:48;103214.06;;;11.28;100.00
25430;BME280;13360;48.152;-1.788;2023-02-02T01:15:13;103211.28;;;11.28;100.00
25430;BME280;13360;48.152;-1.788;2023-02-02T01:17:39;103199.38;;;11.28;100.00
25430;BME280;13360;48.152;-1.788;2023-02-02T01:20:06;103180.50;;;11.13;100.00
25430;BME280;13360;48.152;-1.788;2023-02-02T01:22:32;103188.06;;;11.18;100.00
25430;BME280;13360;48.152;-1.788;2023-02-02T01:25:00;103198.53;;;11.16;100.00
25430;BME280;13360;48.152;-1.788;2023-02-02T01:27:25;103206.81;;;11.16;100.00
25430;BME280;13360;48.152;-1.788;2023-02-02T01:29:51;103194.69;;;11.17;100.00
25430;BME280;13360;48.152;-1.788;2023-02-02T01:32:16;103186.03;;;11.13;100.00
25430;BME280;13360;48.152;-1.788;2023-02-02T01:34:42;103180.72;;;11.12;100.00
25430;BME280;13360;48.152;-1.788;2023-02-02T01:37:08;103173.03;;;11.14;100.00
25430;BME280;13360;48.152;-1.788;2023-02-02T01:39:33;103180.84;;;11.17;100.00
25430;BME280;13360;48.152;-1.788;2023-02-02T01:41:59;103186.38;;;11.17;100.00
25430;BME280;13360;48.152;-1.788;2023-02-02T01:45:00;103185.78;;;11.15;100.00
25430;BME280;13360;48.152;-1.788;2023-02-02T01:47:30;103177.63;;;11.08;100.00
25430;BME280;13360;48.152;-1.788;2023-02-02T01:49:56;103189.63;;;11.14;100.00
25430;BME280;13360;48.152;-1.788;2023-02-02T01:52:25;103186.38;;;11.17;100.00
25430;BME280;13360;48.152;-1.788;2023-02-02T01:54:55;103180.72;;;11.12;100.00
25430;BME280;13360;48.152;-1.788;2023-02-02T01:57:52;103180.00;;;11.16;100.00
25430;BME280;13360;48.152;-1.788;2023-02-02T02:00:19;103183.00;;;11.15;100.00
25430;BME280;13360;48.152;-1.788;2023-02-02T02:02:56;103172.31;;;11.07;100.00
25430;BME280;13360;48.152;-1.788;2023-02-02T02:05:29;103180.63;;;11.07;100.00
25430;BME280;13360;48.152;-1.788;2023-02-02T02:08:02;103182.06;;;11.09;100.00
25430;BME280;13360;48.152;-1.788;2023-02-02T02:10:29;103175.56;;;11.04;100.00
25430;BME280;13360;48.152;-1.788;2023-02-02T02:12:54;103189.03;;;11.12;100.00
25430;BME280;13360;48.152;-1.788;2023-02-02T02:15:20;103175.44;;;11.10;100.00
25430;BME280;13360;48.152;-1.788;2023-02-02T02:18:19;103189.28;;;11.10;100.00
25430;BME280;13360;48.152;-1.788;2023-02-02T02:21:04;103167.88;;;11.06;100.00
25430;BME280;13360;48.152;-1.788;2023-02-02T02:27:46;103175.44;;;11.10;100.00
25430;BME280;13360;48.152;-1.788;2023-02-02T02:33:17;103178.31;;;11.15;100.00
25430;BME280;13360;48.152;-1.788;2023-02-02T02:38:49;103179.75;;;11.18;100.00
25430;BME280;13360;48.152;-1.788;2023-02-02T02:41:20;103171.09;;;11.14;100.00
25430;BME280;13360;48.152;-1.788;2023-02-02T02:43:53;103168.09;;;11.16;100.00
25430;BME280;13360;48.152;-1.788;2023-02-02T02:46:20;103178.06;;;11.17;100.00
25430;BME280;13360;48.152;-1.788;2023-02-02T02:48:46;103172.53;;;11.17;100.00
25430;BME280;13360;48.152;-1.788;2023-02-02T02:54:05;103168.94;;;11.16;100.00
25430;BME280;13360;48.152;-1.788;2023-02-02T02:56:36;103165.09;;;11.17;100.00
25430;BME280;13360;48.152;-1.788;2023-02-02T03:07:50;103165.22;;;11.11;100.00
25430;BME280;13360;48.152;-1.788;2023-02-02T03:10:20;103173.41;;;11.06;100.00
25430;BME280;13360;48.152;-1.788;2023-02-02T03:12:50;103167.72;;;11.00;100.00
25430;BME280;13360;48.152;-1.788;2023-02-02T03:15:16;103179.41;;;11.03;100.00
25430;BME280;13360;48.152;-1.788;2023-02-02T03:17:43;103177.72;;;11.02;100.00
25430;BME280;13360;48.152;-1.788;2023-02-02T03:20:10;103178.34;;;11.04;100.00
25430;BME280;13360;48.152;-1.788;2023-02-02T03:22:35;103192.16;;;11.04;100.00
25430;BME280;13360;48.152;-1.788;2023-02-02T03:25:01;103197.91;;;11.02;100.00
25430;BME280;13360;48.152;-1.788;2023-02-02T03:27:27;103209.22;;;11.00;100.00
25430;BME280;13360;48.152;-1.788;2023-02-02T03:29:53;103206.44;;;11.00;100.00
25430;BME280;13360;48.152;-1.788;2023-02-02T03:32:19;103218.13;;;11.03;100.00
25430;BME280;13360;48.152;-1.788;2023-02-02T03:34:44;103211.97;;;11.00;100.00
25430;BME280;13360;48.152;-1.788;2023-02-02T03:37:10;103217.28;;;11.02;100.00
25430;BME280;13360;48.152;-1.788;2023-02-02T03:39:35;103216.44;;;11.02;100.00
25430;BME280;13360;48.152;-1.788;2023-02-02T03:42:00;103223.88;;;11.01;100.00
25430;BME280;13360;48.152;-1.788;2023-02-02T03:44:25;103239.41;;;11.02;100.00
25430;BME280;13360;48.152;-1.788;2023-02-02T03:46:54;103241.31;;;11.02;100.00
25430;BME280;13360;48.152;-1.788;2023-02-02T03:49:20;103255.16;;;11.02;100.00
25430;BME280;13360;48.152;-1.788;2023-02-02T03:51:45;103257.91;;;11.02;100.00
25430;BME280;13360;48.152;-1.788;2023-02-02T03:54:11;103259.00;;;11.00;100.00
25430;BME280;13360;48.152;-1.788;2023-02-02T03:56:36;103244.94;;;11.02;100.00
25430;BME280;13360;48.152;-1.788;2023-02-02T03:59:02;103246.84;;;11.02;100.00
25430;BME280;13360;48.152;-1.788;2023-02-02T04:01:28;103241.81;;;10.98;100.00
25430;BME280;13360;48.152;-1.788;2023-02-02T04:03:55;103252.28;;;10.96;100.00
25430;BME280;13360;48.152;-1.788;2023-02-02T04:06:21;103244.56;;;10.98;100.00
25430;BME280;13360;48.152;-1.788;2023-02-02T04:08:47;103257.91;;;11.02;100.00
25430;BME280;13360;48.152;-1.788;2023-02-02T04:11:12;103261.53;;;11.02;100.00
25430;BME280;13360;48.152;-1.788;2023-02-02T04:13:37;103261.53;;;11.02;100.00
25430;BME280;13360;48.152;-1.788;2023-02-02T04:16:04;103269.22;;;11.00;100.00
25430;BME280;13360;48.152;-1.788;2023-02-02T04:18:29;103266.22;;;11.02;100.00
25430;BME280;13360;48.152;-1.788;2023-02-02T04:20:59;103269.81;;;11.02;100.00
25430;BME280;13360;48.152;-1.788;2023-02-02T04:23:26;103266.22;;;11.02;100.00
25430;BME280;13360;48.152;-1.788;2023-02-02T04:25:51;103255.16;;;11.02;100.00
25430;BME280;13360;48.152;-1.788;2023-02-02T04:28:17;103271.28;;;11.05;100.00
25430;BME280;13360;48.152;-1.788;2023-02-02T04:30:42;103280.19;;;11.07;100.00
25430;BME280;13360;48.152;-1.788;2023-02-02T04:33:07;103278.97;;;11.03;100.00
25430;BME280;13360;48.152;-1.788;2023-02-02T04:35:33;103277.28;;;11.02;100.00
25430;BME280;13360;48.152;-1.788;2023-02-02T04:37:58;103276.44;;;11.01;100.00
25430;BME280;13360;48.152;-1.788;2023-02-02T04:40:23;103279.59;;;11.05;100.00
25430;BME280;13360;48.152;-1.788;2023-02-02T04:42:49;103278.50;;;11.06;100.00
25430;BME280;13360;48.152;-1.788;2023-02-02T04:45:14;103283.19;;;11.05;100.00
25430;BME280;13360;48.152;-1.788;2023-02-02T04:47:39;103285.69;;;10.95;100.00
25430;BME280;13360;48.152;-1.788;2023-02-02T04:50:05;103295.06;;;10.94;100.00
25430;BME280;13360;48.152;-1.788;2023-02-02T04:52:31;103293.16;;;10.94;100.00
25430;BME280;13360;48.152;-1.788;2023-02-02T04:54:56;103294.22;;;10.93;100.00
25430;BME280;13360;48.152;-1.788;2023-02-02T04:57:21;103297.00;;;10.93;100.00
25430;BME280;13360;48.152;-1.788;2023-02-02T04:59:47;103298.91;;;10.93;100.00
25430;BME280;13360;48.152;-1.788;2023-02-02T05:02:12;103302.75;;;10.92;100.00
25430;BME280;13360;48.152;-1.788;2023-02-02T05:04:37;103300.84;;;10.92;100.00
25430;BME280;13360;48.152;-1.788;2023-02-02T05:07:03;103289.78;;;10.92;100.00
25430;BME280;13360;48.152;-1.788;2023-02-02T05:09:28;103289.78;;;10.92;100.00
25430;BME280;13360;48.152;-1.788;2023-02-02T05:11:53;103293.38;;;10.93;100.00
25430;BME280;13360;48.152;-1.788;2023-02-02T05:14:19;103301.94;;;10.91;100.00
25430;BME280;13360;48.152;-1.788;2023-02-02T05:16:44;103297.94;;;10.87;100.00
25430;BME280;13360;48.152;-1.788;2023-02-02T05:19:11;103301.31;;;10.89;100.00
25430;BME280;13360;48.152;-1.788;2023-02-02T05:21:36;103297.47;;;10.90;100.00
25430;BME280;13360;48.152;-1.788;2023-02-02T05:24:02;103295.31;;;10.92;100.00
25430;BME280;13360;48.152;-1.788;2023-02-02T05:26:28;103291.94;;;10.90;100.00
25430;BME280;13360;48.152;-1.788;2023-02-02T05:28:53;103297.94;;;10.87;100.00
25430;BME280;13360;48.152;-1.788;2023-02-02T05:31:20;103291.59;;;10.87;100.00
25430;BME280;13360;48.152;-1.788;2023-02-02T05:33:45;103299.88;;;10.87;100.00
25430;BME280;13360;48.152;-1.788;2023-02-02T05:36:11;103289.28;;;10.84;100.00
25430;BME280;13360;48.152;-1.788;2023-02-02T05:38:36;103298.44;;;10.84;100.00
25430;BME280;13360;48.152;-1.788;2023-02-02T05:41:02;103292.66;;;10.86;100.00
25430;BME280;13360;48.152;-1.788;2023-02-02T05:43:29;103292.25;;;10.82;100.00
25430;BME280;13360;48.152;-1.788;2023-02-02T05:45:55;103297.78;;;10.82;100.00
25430;BME280;13360;48.152;-1.788;2023-02-02T05:48:21;103298.28;;;10.79;100.00
25430;BME280;13360;48.152;-1.788;2023-02-02T05:50:54;103304.88;;;10.78;100.00
25430;BME280;13360;48.152;-1.788;2023-02-02T05:53:22;103305.72;;;10.79;100.00
25430;BME280;13360;48.152;-1.788;2023-02-02T05:55:48;103308.25;;;10.80;100.00
25430;BME280;13360;48.152;-1.788;2023-02-02T05:58:13;103315.47;;;10.81;100.00
25430;BME280;13360;48.152;-1.788;2023-02-02T06:00:38;103326.53;;;10.81;100.00
25430;BME280;13360;48.152;-1.788;2023-02-02T06:03:04;103320.16;;;10.81;100.00
25430;BME280;13360;48.152;-1.788;2023-02-02T06:05:29;103325.44;;;10.82;100.00
25430;BME280;13360;48.152;-1.788;2023-02-02T06:07:55;103315.03;;;10.84;100.00
25430;BME280;13360;48.152;-1.788;2023-02-02T06:10:20;103310.41;;;10.78;100.00
25430;BME280;13360;48.152;-1.788;2023-02-02T06:12:45;103317.72;;;10.73;100.00
25430;BME280;13360;48.152;-1.788;2023-02-02T06:15:10;103333.25;;;10.74;100.00
25430;BME280;13360;48.152;-1.788;2023-02-02T06:17:36;103340.69;;;10.73;100.00
25430;BME280;13360;48.152;-1.788;2023-02-02T06:20:02;103336.63;;;10.76;100.00
25430;BME280;13360;48.152;-1.788;2023-02-02T06:22:28;103336.25;;;10.72;100.00
25430;BME280;13360;48.152;-1.788;2023-02-02T06:24:54;103337.94;;;10.73;100.00
25430;BME280;13360;48.152;-1.788;2023-02-02T06:27:20;103341.53;;;10.74;100.00
25430;BME280;13360;48.152;-1.788;2023-02-02T06:29:45;103340.22;;;10.76;100.00
25430;BME280;13360;48.152;-1.788;2023-02-02T06:32:11;103348.50;;;10.76;100.00
25430;BME280;13360;48.152;-1.788;2023-02-02T06:34:36;103339.63;;;10.74;100.00
25430;BME280;13360;48.152;-1.788;2023-02-02T06:37:01;103340.69;;;10.73;100.00
25430;BME280;13360;48.152;-1.788;2023-02-02T06:39:27;103341.53;;;10.74;100.00
25430;BME280;13360;48.152;-1.788;2023-02-02T06:41:52;103336.25;;;10.72;100.00
25430;BME280;13360;48.152;-1.788;2023-02-02T06:44:17;103327.81;;;10.67;100.00
25430;BME280;13360;48.152;-1.788;2023-02-02T06:46:45;103339.00;;;10.72;100.00
25430;BME280;13360;48.152;-1.788;2023-02-02T06:49:10;103335.16;;;10.73;100.00
25430;BME280;13360;48.152;-1.788;2023-02-02T06:51:36;103350.19;;;10.77;100.00
25430;BME280;13360;48.152;-1.788;2023-02-02T06:54:01;103356.81;;;10.76;100.00
25430;BME280;13360;48.152;-1.788;2023-02-02T06:56:28;103358.72;;;10.76;100.00
25430;BME280;13360;48.152;-1.788;2023-02-02T06:58:53;103366.19;;;10.75;100.00
25430;BME280;13360;48.152;-1.788;2023-02-02T07:01:19;103370.16;;;10.79;100.00
25430;BME280;13360;48.152;-1.788;2023-02-02T07:03:47;103368.63;;;10.83;100.00
25430;BME280;13360;48.152;-1.788;2023-02-02T07:06:22;103364.78;;;10.84;100.00
25430;BME280;13360;48.152;-1.788;2023-02-02T07:08:48;103372.00;;;10.85;100.00
25430;BME280;13360;48.152;-1.788;2023-02-02T07:11:15;103382.66;;;10.82;100.00
25430;BME280;13360;48.152;-1.788;2023-02-02T07:13:41;103389.69;;;10.84;100.00
25430;BME280;13360;48.152;-1.788;2023-02-02T07:16:06;103371.16;;;10.85;100.00
25430;BME280;13360;48.152;-1.788;2023-02-02T07:18:33;103373.69;;;10.86;100.00
25430;BME280;13360;48.152;-1.788;2023-02-02T07:21:01;103377.53;;;10.85;100.00
25430;BME280;13360;48.152;-1.788;2023-02-02T07:23:27;103371.00;;;10.80;100.00
25430;BME280;13360;48.152;-1.788;2023-02-02T07:26:07;103380.38;;;10.79;100.00
25430;BME280;13360;48.152;-1.788;2023-02-02T07:28:33;103395.50;;;10.76;100.00
25430;BME280;13360;48.152;-1.788;2023-02-02T07:30:59;103405.72;;;10.76;100.00
25430;BME280;13360;48.152;-1.788;2023-02-02T07:33:25;103411.63;;;10.79;100.00
25430;BME280;13360;48.152;-1.788;2023-02-02T07:35:51;103411.63;;;10.79;100.00
25430;BME280;13360;48.152;-1.788;2023-02-02T07:38:16;103407.78;;;10.80;100.00
25430;BME280;13360;48.152;-1.788;2023-02-02T07:40:42;103403.94;;;10.81;100.00
25430;BME280;13360;48.152;-1.788;2023-02-02T07:43:08;103410.78;;;10.79;100.00
25430;BME280;13360;48.152;-1.788;2023-02-02T07:45:33;103426.53;;;10.78;100.00
25430;BME280;13360;48.152;-1.788;2023-02-02T07:48:00;103417.63;;;10.76;100.00
25430;BME280;13360;48.152;-1.788;2023-02-02T07:50:27;103427.16;;;10.80;100.00
25430;BME280;13360;48.152;-1.788;2023-02-02T07:52:53;103423.53;;;10.80;100.00
25430;BME280;13360;48.152;-1.788;2023-02-02T07:55:18;103422.69;;;10.79;100.00
25430;BME280;13360;48.152;-1.788;2023-02-02T07:57:44;103426.06;;;10.81;100.00
25430;BME280;13360;48.152;-1.788;2023-02-02T08:00:10;103434.75;;;10.85;100.00
25430;BME280;13360;48.152;-1.788;2023-02-02T08:02:36;103432.25;;;10.83;100.00
25430;BME280;13360;48.152;-1.788;2023-02-02T08:05:01;103445.22;;;10.83;100.00
25430;BME280;13360;48.152;-1.788;2023-02-02T08:07:26;103432.44;;;10.82;100.00
25430;BME280;13360;48.152;-1.788;2023-02-02T08:09:52;103449.88;;;10.82;100.00
25430;BME280;13360;48.152;-1.788;2023-02-02T08:12:18;103449.88;;;10.82;100.00
25430;BME280;13360;48.152;-1.788;2023-02-02T08:14:45;103447.09;;;10.82;100.00
25430;BME280;13360;48.152;-1.788;2023-02-02T08:17:11;103451.13;;;10.86;100.00
25430;BME280;13360;48.152;-1.788;2023-02-02T08:19:36;103455.81;;;10.86;100.00
25430;BME280;13360;48.152;-1.788;2023-02-02T08:22:01;103449.81;;;10.89;100.00
25430;BME280;13360;48.152;-1.788;2023-02-02T08:24:27;103450.66;;;10.89;100.00
25430;BME280;13360;48.152;-1.788;2023-02-02T08:26:52;103450.50;;;10.84;100.00
25430;BME280;13360;48.152;-1.788;2023-02-02T08:29:17;103467.09;;;10.84;100.00
25430;BME280;13360;48.152;-1.788;2023-02-02T08:31:43;103470.72;;;10.85;100.00
25430;BME280;13360;48.152;-1.788;2023-02-02T08:34:10;103465.63;;;10.82;100.00
25430;BME280;13360;48.152;-1.788;2023-02-02T08:36:36;103453.72;;;10.81;100.00
25430;BME280;13360;48.152;-1.788;2023-02-02T08:39:05;103460.31;;;10.80;100.00
25430;BME280;13360;48.152;-1.788;2023-02-02T08:41:31;103463.09;;;10.80;100.00
25430;BME280;13360;48.152;-1.788;2023-02-02T08:43:57;103475.84;;;10.81;100.00
25430;BME280;13360;48.152;-1.788;2023-02-02T08:46:23;103475.78;;;10.88;100.00
25430;BME280;13360;48.152;-1.788;2023-02-02T08:48:48;103481.06;;;10.89;100.00
25430;BME280;13360;48.152;-1.788;2023-02-02T08:51:16;103478.91;;;10.91;100.00
25430;BME280;13360;48.152;-1.788;2023-02-02T08:53:43;103480.38;;;10.94;100.00
25430;BME280;13360;48.152;-1.788;2023-02-02T08:56:17;103488.44;;;10.95;100.00
25430;BME280;13360;48.152;-1.788;2023-02-02T08:58:45;103487.94;;;10.98;100.00
25430;BME280;13360;48.152;-1.788;2023-02-02T09:01:14;103494.34;;;10.99;100.00
25430;BME280;13360;48.152;-1.788;2023-02-02T09:03:40;103498.53;;;11.02;100.00
25430;BME280;13360;48.152;-1.788;2023-02-02T09:06:07;103494.94;;;11.01;100.00
25430;BME280;13360;48.152;-1.788;2023-02-02T09:08:33;103490.91;;;11.04;100.00
25430;BME280;13360;48.152;-1.788;2023-02-02T09:11:04;103490.41;;;11.07;100.00
25430;BME280;13360;48.152;-1.788;2023-02-02T09:13:29;103490.56;;;11.12;100.00
25430;BME280;13360;48.152;-1.788;2023-02-02T09:15:58;103503.53;;;11.11;100.00
25430;BME280;13360;48.152;-1.788;2023-02-02T09:18:24;103517.50;;;11.16;100.00
25430;BME280;13360;48.152;-1.788;2023-02-02T09:20:50;103512.59;;;11.18;100.00
25430;BME280;13360;48.152;-1.788;2023-02-02T09:23:15;103515.72;;;11.22;100.00
25430;BME280;13360;48.152;-1.788;2023-02-02T09:25:40;103520.81;;;11.25;100.00
25430;BME280;13360;48.152;-1.788;2023-02-02T09:28:06;103525.28;;;11.26;100.00
25430;BME280;13360;48.152;-1.788;2023-02-02T09:30:31;103538.63;;;11.29;100.00
25430;BME280;13360;48.152;-1.788;2023-02-02T09:32:56;103549.72;;;11.29;100.00
25430;BME280;13360;48.152;-1.788;2023-02-02T09:35:22;103545.38;;;11.33;100.00
25430;BME280;13360;48.152;-1.788;2023-02-02T09:37:47;103546.34;;;11.27;100.00
25430;BME280;13360;48.152;-1.788;2023-02-02T09:40:15;103561.47;;;11.24;100.00
25430;BME280;13360;48.152;-1.788;2023-02-02T09:42:55;103579.97;;;11.24;100.00
25430;BME280;13360;48.152;-1.788;2023-02-02T09:45:41;103578.09;;;11.24;100.00
25430;BME280;13360;48.152;-1.788;2023-02-02T09:48:19;103574.44;;;11.24;100.00
25430;BME280;13360;48.152;-1.788;2023-02-02T09:50:56;103582.53;;;11.25;100.00
25430;BME280;13360;48.152;-1.788;2023-02-02T09:53:41;103590.59;;;11.27;100.00
25430;BME280;13360;48.152;-1.788;2023-02-02T09:56:16;103587.38;;;11.30;100.00
25430;BME280;13360;48.152;-1.788;2023-02-02T09:58:51;103589.06;;;11.31;100.00
25430;BME280;13360;48.152;-1.788;2023-02-02T10:01:21;103589.19;;;11.36;100.00
25430;BME280;13360;48.152;-1.788;2023-02-02T10:06:47;103590.41;;;11.40;100.00
25430;BME280;13360;48.152;-1.788;2023-02-02T10:12:02;103606.94;;;11.47;100.00
25430;BME280;13360;48.152;-1.788;2023-02-02T10:17:35;103614.19;;;11.48;100.00
25430;BME280;13360;48.152;-1.788;2023-02-02T10:20:32;103629.94;;;11.47;100.00
25430;BME280;13360;48.152;-1.788;2023-02-02T10:23:26;103629.09;;;11.47;100.00
25430;BME280;13360;48.152;-1.788;2023-02-02T10:29:01;103612.09;;;11.43;100.00
25430;BME280;13360;48.152;-1.788;2023-02-02T10:37:01;103633.69;;;11.53;100.00
25430;BME280;13360;48.152;-1.788;2023-02-02T10:39:41;103633.22;;;11.56;100.00
25430;BME280;13360;48.152;-1.788;2023-02-02T10:44:56;103636.34;;;11.59;100.00
25430;BME280;13360;48.152;-1.788;2023-02-02T10:47:30;103629.75;;;11.60;100.00
25430;BME280;13360;48.152;-1.788;2023-02-02T10:52:37;103625.41;;;11.65;100.00
25430;BME280;13360;48.152;-1.788;2023-02-02T10:58:36;103630.53;;;11.68;100.00
25430;BME280;13360;48.152;-1.788;2023-02-02T11:00:50;103634.25;;;11.73;100.00
25430;BME280;13360;48.152;-1.788;2023-02-02T11:03:20;103602.34;;;11.71;100.00
25430;BME280;13360;48.152;-1.788;2023-02-02T11:05:46;103569.59;;;11.68;100.00
25430;BME280;13360;48.152;-1.788;2023-02-02T11:08:35;103553.59;;;11.70;100.00
25430;BME280;13360;48.152;-1.788;2023-02-02T11:11:19;103556.38;;;11.70;100.00
25430;BME280;13360;48.152;-1.788;2023-02-02T11:14:01;103578.03;;;11.73;100.00
25430;BME280;13360;48.152;-1.788;2023-02-02T11:16:29;103593.09;;;11.77;100.00
25430;BME280;13360;48.152;-1.788;2023-02-02T11:18:56;103604.34;;;11.82;100.00
25430;BME280;13360;48.152;-1.788;2023-02-02T11:26:18;103605.47;;;11.93;100.00
25430;BME280;13360;48.152;-1.788;2023-02-02T11:28:46;103585.22;;;11.92;100.00
25430;BME280;13360;48.152;-1.788;2023-02-02T11:31:29;103548.94;;;11.82;100.00
25430;BME280;13360;48.152;-1.788;2023-02-02T11:34:07;103535.25;;;11.87;100.00
25430;BME280;13360;48.152;-1.788;2023-02-02T11:36:33;103533.53;;;11.86;100.00
25430;BME280;13360;48.152;-1.788;2023-02-02T11:39:15;103530.06;;;11.90;100.00
25430;BME280;13360;48.152;-1.788;2023-02-02T11:41:43;103533.44;;;11.93;100.00
25430;BME280;13360;48.152;-1.788;2023-02-02T11:44:18;103515.88;;;11.87;100.00
25430;BME280;13360;48.152;-1.788;2023-02-02T11:46:46;103527.16;;;11.85;100.00
25430;BME280;13360;48.152;-1.788;2023-02-02T11:49:15;103535.84;;;11.89;100.00
25430;BME280;13360;48.152;-1.788;2023-02-02T11:51:58;103543.69;;;11.92;100.00
25430;BME280;13360;48.152;-1.788;2023-02-02T11:54:34;103558.13;;;11.94;100.00
25430;BME280;13360;48.152;-1.788;2023-02-02T11:57:07;103550.06;;;11.93;100.00
25430;BME280;13360;48.152;-1.788;2023-02-02T11:59:43;103542.72;;;11.98;100.00
25430;BME280;13360;48.152;-1.788;2023-02-02T12:04:37;103520.06;;;12.01;100.00
25430;BME280;13360;48.152;-1.788;2023-02-02T12:07:25;103534.28;;;12.05;100.00
25430;BME280;13360;48.152;-1.788;2023-02-02T12:09:52;103514.53;;;12.01;100.00
25430;BME280;13360;48.152;-1.788;2023-02-02T12:31:33;103440.09;;;12.16;100.00
25430;BME280;13360;48.152;-1.788;2023-02-02T12:39:32;103444.19;;;12.26;100.00
25430;BME280;13360;48.152;-1.788;2023-02-02T12:50:29;103420.31;;;12.36;100.00
25430;BME280;13360;48.152;-1.788;2023-02-02T12:53:12;103415.25;;;12.33;100.00
25430;BME280;13360;48.152;-1.788;2023-02-02T12:55:59;103404.19;;;12.33;100.00
25430;BME280;13360;48.152;-1.788;2023-02-02T13:09:40;103368.66;;;12.30;100.00
25430;BME280;13360;48.152;-1.788;2023-02-02T13:12:10;103375.50;;;12.28;100.00
25430;BME280;13360;48.152;-1.788;2023-02-02T13:14:53;103365.03;;;12.30;100.00
25430;BME280;13360;48.152;-1.788;2023-02-02T13:20:03;103361.03;;;12.26;100.00
25430;BME280;13360;48.152;-1.788;2023-02-02T13:22:35;103357.19;;;12.27;100.00
25430;BME280;13360;48.152;-1.788;2023-02-02T13:25:04;103347.06;;;12.20;100.00
25430;BME280;13360;48.152;-1.788;2023-02-02T13:27:33;103354.66;;;12.25;100.00
25430;BME280;13360;48.152;-1.788;2023-02-02T13:32:38;103355.03;;;12.29;100.00
25430;BME280;13360;48.152;-1.788;2023-02-02T13:35:16;103342.03;;;12.17;100.00
25430;BME280;13360;48.152;-1.788;2023-02-02T13:38:18;103337.09;;;12.19;100.00
25430;BME280;13360;48.152;-1.788;2023-02-02T13:40:44;103338.75;;;12.20;100.00
25430;BME280;13360;48.152;-1.788;2023-02-02T13:51:13;103337.19;;;12.25;100.00
25430;BME280;13360;48.152;-1.788;2023-02-02T14:01:52;103346.81;;;12.34;100.00
25430;BME280;13360;48.152;-1.788;2023-02-02T14:04:24;103341.28;;;12.34;100.00
25430;BME280;13360;48.152;-1.788;2023-02-02T14:07:03;103348.00;;;12.38;100.00
25430;BME280;13360;48.152;-1.788;2023-02-02T14:09:35;103354.13;;;12.40;100.00
25430;BME280;13360;48.152;-1.788;2023-02-02T14:12:04;103361.97;;;12.43;100.00
25430;BME280;13360;48.152;-1.788;2023-02-02T14:14:34;103366.16;;;12.45;100.00
25430;BME280;13360;48.152;-1.788;2023-02-02T14:27:12;103381.84;;;12.51;100.00
25430;BME280;13360;48.152;-1.788;2023-02-02T14:34:51;103345.81;;;12.40;100.00
25430;BME280;13360;48.152;-1.788;2023-02-02T14:45:48;103343.66;;;12.42;100.00
25430;BME280;13360;48.152;-1.788;2023-02-02T14:48:19;103354.22;;;12.45;100.00
25430;BME280;13360;48.152;-1.788;2023-02-02T14:50:53;103353.88;;;12.41;100.00
25430;BME280;13360;48.152;-1.788;2023-02-02T14:53:34;103396.41;;;12.47;100.00
25430;BME280;13360;48.152;-1.788;2023-02-02T14:56:04;103402.44;;;12.44;100.00
25430;BME280;13360;48.152;-1.788;2023-02-02T14:58:57;103409.94;;;12.43;100.00
25430;BME280;13360;48.152;-1.788;2023-02-02T15:01:27;103401.25;;;12.40;100.00
25430;BME280;13360;48.152;-1.788;2023-02-02T15:06:32;103353.19;;;12.34;100.00
25430;BME280;13360;48.152;-1.788;2023-02-02T15:14:24;103393.28;;;12.43;100.00